Time;durP1;ratioP1;P1;durP2;ratioP2;P2;SDS_P1;SDS_P2;PMS_P1;PMS_P2;Temp;Humidity;BMP_temperature;BMP_pressure;BME280_temperature;BME280_humidity;BME280_pressure;Samples;Min_cycle;Max_cycle;Signal;HPM_P1;HPM_P2
2023/06/23 00:00:09;;;;;;;1.83;1.73;;;;;;;16.38;100.00;91363.66;5032135;28;20538;-68
2023/06/23 00:02:35;;;;;;;4.38;2.78;;;;;;;16.39;100.00;91357.16;5017305;28;20033;-68
2023/06/23 00:05:01;;;;;;;3.42;1.60;;;;;;;16.40;100.00;91358.72;5012147;28;20041;-68
2023/06/23 00:07:26;;;;;;;1.67;1.55;;;;;;;16.41;100.00;91354.97;5012368;28;20030;-68
2023/06/23 00:09:52;;;;;;;2.35;2.15;;;;;;;16.42;100.00;91356.53;5012514;28;20044;-68
2023/06/23 00:12:17;;;;;;;1.30;1.30;;;;;;;16.42;100.00;91353.84;5012249;28;20149;-68
2023/06/23 00:14:43;;;;;;;4.32;1.33;;;;;;;16.39;100.00;91351.78;5012512;28;20506;-67
2023/06/23 00:17:08;;;;;;;1.85;1.75;;;;;;;16.29;100.00;91354.94;5012120;28;20073;-68
2023/06/23 00:19:34;;;;;;;5.50;4.70;;;;;;;16.25;100.00;91350.53;5012709;28;20104;-67
2023/06/23 00:21:59;;;;;;;1.60;1.10;;;;;;;16.20;100.00;91359.59;5012034;28;20188;-68
2023/06/23 00:24:24;;;;;;;9.00;2.42;;;;;;;16.13;100.00;91362.81;5011899;28;20022;-68
2023/06/23 00:26:50;;;;;;;1.30;1.27;;;;;;;16.11;100.00;91359.69;5012246;28;20397;-68
2023/06/23 00:29:16;;;;;;;2.63;2.33;;;;;;;16.12;100.00;91350.53;5012168;28;20030;-68
2023/06/23 00:31:41;;;;;;;1.48;1.38;;;;;;;16.17;100.00;91357.56;5012233;28;20068;-68
2023/06/23 00:34:07;;;;;;;1.98;1.75;;;;;;;16.20;100.00;91353.44;5012117;28;20146;-67
2023/06/23 00:36:32;;;;;;;2.17;1.70;;;;;;;16.16;100.00;91347.94;5011901;28;20042;-68
2023/06/23 00:38:58;;;;;;;1.77;1.67;;;;;;;15.99;100.00;91338.19;5011908;28;20400;-68
2023/06/23 00:41:23;;;;;;;3.88;1.95;;;;;;;15.95;100.00;91339.97;5011944;28;20022;-68
2023/06/23 00:43:50;;;;;;;3.70;2.00;;;;;;;15.88;100.00;91335.13;5011849;28;20502;-68
2023/06/23 00:46:21;;;;;;;2.58;2.28;;;;;;;15.87;100.00;91340.81;5011861;28;20118;-68
2023/06/23 00:48:48;;;;;;;1.17;1.17;;;;;;;15.87;100.00;91336.22;5012101;28;20033;-68
2023/06/23 00:51:16;;;;;;;3.80;2.53;;;;;;;15.92;100.00;91332.56;5012006;28;20041;-68
2023/06/23 00:53:47;;;;;;;31.42;2.63;;;;;;;15.87;100.00;91328.19;5012068;28;20022;-68
2023/06/23 00:56:14;;;;;;;2.05;1.60;;;;;;;15.83;100.00;91329.97;5011959;28;20034;-68
2023/06/23 00:58:40;;;;;;;3.00;2.00;;;;;;;15.86;100.00;91325.84;5026993;28;20034;-68
2023/06/23 01:01:05;;;;;;;1.48;1.27;;;;;;;15.90;100.00;91329.41;5011920;28;20113;-68
2023/06/23 01:03:31;;;;;;;2.75;1.80;;;;;;;15.97;100.00;91329.69;5013339;28;20112;-68
2023/06/23 01:06:07;;;;;;;1.67;1.58;;;;;;;15.98;100.00;91320.50;5015547;28;20088;-68
2023/06/23 01:09:11;;;;;;;6.72;1.45;;;;;;;15.95;100.00;91328.44;5015520;28;20065;-68
2023/06/23 01:11:42;;;;;;;;;;;;;;;15.85;100.00;91327.72;5010030;28;20050;-68
2023/06/23 01:14:21;;;;;;;0.90;0.90;;;;;;;15.83;100.00;91324.59;5015655;28;19933;-68
2023/06/23 01:16:58;;;;;;;1.85;1.75;;;;;;;15.81;100.00;91329.53;5015266;28;20046;-68
2023/06/23 01:20:21;;;;;;;1.88;1.70;;;;;;;15.76;100.00;91323.56;5015350;28;20026;-68
2023/06/23 01:22:58;;;;;;;1.55;1.45;;;;;;;15.73;100.00;91325.00;4936254;29;20042;-68
2023/06/23 01:25:45;;;;;;;3.13;2.20;;;;;;;15.73;100.00;91325.00;4935923;29;20040;-68
2023/06/23 01:28:38;;;;;;;1.55;1.45;;;;;;;15.80;100.00;91325.28;4995853;28;20041;-69
2023/06/23 01:31:09;;;;;;;2.28;1.50;;;;;;;15.94;100.00;91324.16;5015162;28;20538;-68
2023/06/23 01:33:43;;;;;;;4.78;2.25;;;;;;;16.00;100.00;91318.28;5015401;28;20048;-68
2023/06/23 01:36:14;;;;;;;1.88;1.33;;;;;;;15.98;100.00;91325.09;5015310;28;20026;-67
2023/06/23 01:38:44;;;;;;;15.02;2.22;;;;;;;15.95;100.00;91317.72;5015034;28;20073;-67
2023/06/23 01:41:21;;;;;;;1.20;1.20;;;;;;;15.81;100.00;91316.09;5014937;28;20033;-67
2023/06/23 01:43:49;;;;;;;1.85;1.73;;;;;;;15.74;100.00;91317.75;5015491;28;20038;-68
2023/06/23 01:46:25;;;;;;;2.78;2.55;;;;;;;15.66;100.00;91319.41;5015005;28;20038;-67
2023/06/23 01:48:54;;;;;;;1.88;1.30;;;;;;;15.51;100.00;91319.97;5014848;28;20033;-67
2023/06/23 01:51:21;;;;;;;13.43;1.92;;;;;;;15.48;100.00;91328.69;5014843;28;20026;-68
2023/06/23 01:53:48;;;;;;;1.50;1.40;;;;;;;15.44;100.00;91330.44;5014873;28;20084;-68
2023/06/23 01:56:15;;;;;;;1.63;1.52;;;;;;;15.39;100.00;91327.97;5014730;28;20041;-68
2023/06/23 01:58:41;;;;;;;1.70;1.60;;;;;;;15.26;100.00;91335.91;5014968;28;20038;-69
2023/06/23 02:01:08;;;;;;;3.38;2.10;;;;;;;15.24;100.00;91332.78;5014722;28;20032;-68
2023/06/23 02:03:34;;;;;;;1.27;1.17;;;;;;;15.21;100.00;91340.69;5014820;28;20038;-67
2023/06/23 02:06:02;;;;;;;1.35;1.35;;;;;;;15.25;100.00;91331.69;5014748;28;20041;-68
2023/06/23 02:08:30;;;;;;;1.70;1.60;;;;;;;15.33;100.00;91337.31;5014863;28;20037;-68
2023/06/23 02:10:57;;;;;;;2.33;1.52;;;;;;;15.43;100.00;91332.31;5006743;28;20057;-68
2023/06/23 02:13:26;;;;;;;4.28;1.63;;;;;;;15.40;100.00;91333.00;5014209;28;20032;-68
2023/06/23 02:15:53;;;;;;;1.50;1.40;;;;;;;15.41;100.00;91333.78;5014078;28;20112;-68
2023/06/23 02:18:19;;;;;;;5.97;2.55;;;;;;;15.41;100.00;91334.56;5014386;28;20045;-68
2023/06/23 02:20:47;;;;;;;1.75;1.63;;;;;;;15.38;100.00;91353.19;5014908;28;20025;-68
2023/06/23 02:23:14;;;;;;;1.55;1.45;;;;;;;15.28;100.00;91341.75;5014124;28;20054;-68
2023/06/23 02:25:41;;;;;;;1.40;1.40;;;;;;;15.15;100.00;91337.44;5014233;28;20109;-68
2023/06/23 02:28:12;;;;;;;1.88;1.77;;;;;;;15.03;100.00;91339.25;5014206;28;20080;-68
2023/06/23 02:30:42;;;;;;;1.45;1.40;;;;;;;14.98;100.00;91348.25;5014369;28;20068;-68
2023/06/23 02:33:08;;;;;;;1.33;1.23;;;;;;;14.98;100.00;91340.22;5014314;28;20157;-67
2023/06/23 02:35:33;;;;;;;1.92;1.45;;;;;;;15.03;100.00;91334.69;5013884;28;20388;-67
2023/06/23 02:38:03;;;;;;;2.47;1.73;;;;;;;14.96;100.00;91339.75;5164048;22;20107;-69
2023/06/23 02:40:33;;;;;;;3.30;1.65;;;;;;;14.95;100.00;91344.31;5033957;28;20518;-68
2023/06/23 02:43:15;;;;;;;2.05;1.65;;;;;;;14.99;100.00;91344.47;5033810;28;20029;-69
2023/06/23 02:45:43;;;;;;;3.40;3.10;;;;;;;15.01;100.00;91347.63;5034166;28;20040;-68
2023/06/23 02:48:36;;;;;;;1.90;1.63;;;;;;;14.98;100.00;91337.53;5033888;28;20080;-67
2023/06/23 02:51:03;;;;;;;2.22;2.00;;;;;;;14.93;100.00;91337.72;5029474;28;20068;-67
2023/06/23 02:53:37;;;;;;;4.65;2.58;;;;;;;14.80;100.00;91333.38;5033985;28;20049;-67
2023/06/23 02:56:10;;;;;;;2.38;2.00;;;;;;;14.71;100.00;91328.09;5033977;28;20475;-67
2023/06/23 02:58:36;;;;;;;1.17;1.17;;;;;;;14.72;100.00;91324.31;5033810;28;20462;-67
2023/06/23 03:01:04;;;;;;;1.25;1.25;;;;;;;14.79;100.00;91339.84;5033801;28;20529;-68
2023/06/23 03:03:33;;;;;;;2.75;2.55;;;;;;;14.79;100.00;91340.63;5033849;28;20040;-68
2023/06/23 03:05:59;;;;;;;2.03;1.60;;;;;;;14.91;100.00;91339.94;5033732;28;20025;-68
2023/06/23 03:08:25;;;;;;;1.60;1.50;;;;;;;15.03;100.00;91339.25;5033895;28;20067;-68
2023/06/23 03:10:51;;;;;;;1.50;1.40;;;;;;;15.12;100.00;91348.78;5033368;28;20041;-68
2023/06/23 03:13:16;;;;;;;1.60;1.50;;;;;;;15.10;100.00;91345.66;5033902;28;20022;-68
2023/06/23 03:15:43;;;;;;;1.08;1.08;;;;;;;15.13;100.00;91328.91;5033465;28;20029;-67
2023/06/23 03:18:15;;;;;;;1.15;1.10;;;;;;;15.22;100.00;91339.59;5033229;28;20032;-68
2023/06/23 03:20:47;;;;;;;7.32;2.25;;;;;;;15.18;100.00;91338.69;5033707;28;20087;-68
2023/06/23 03:23:14;;;;;;;2.03;1.77;;;;;;;15.17;100.00;91337.91;5033073;28;20135;-68
2023/06/23 03:25:41;;;;;;;2.10;2.00;;;;;;;15.21;100.00;91329.97;5032502;28;20043;-68
2023/06/23 03:28:10;;;;;;;2.42;2.22;;;;;;;15.22;100.00;91332.34;5033211;28;20022;-67
2023/06/23 03:30:39;;;;;;;1.63;1.13;;;;;;;15.15;100.00;91326.72;5033182;28;20036;-68
2023/06/23 03:33:11;;;;;;;2.30;2.17;;;;;;;15.13;100.00;91334.28;5033157;28;20146;-68
2023/06/23 03:35:42;;;;;;;1.10;1.10;;;;;;;15.11;100.00;91327.69;5033227;28;20029;-70
2023/06/23 03:38:11;;;;;;;1.95;1.75;;;;;;;15.10;100.00;91323.44;5038071;28;20095;-69
2023/06/23 03:40:59;;;;;;;2.75;2.55;;;;;;;15.08;100.00;91320.28;5052823;28;20111;-69
2023/06/23 03:43:37;;;;;;;1.48;1.38;;;;;;;15.10;100.00;91316.19;5052189;28;20041;-69
2023/06/23 03:46:38;;;;;;;2.15;2.05;;;;;;;15.12;100.00;91330.03;5052538;28;20021;-70
2023/06/23 03:49:05;;;;;;;1.90;1.80;;;;;;;15.08;100.00;91321.09;5050669;28;20498;-70
2023/06/23 03:51:34;;;;;;;2.15;1.90;;;;;;;15.10;100.00;91326.13;5052713;28;20166;-70
2023/06/23 03:54:02;;;;;;;1.33;1.33;;;;;;;15.27;100.00;91328.66;5052366;28;20154;-69
2023/06/23 03:56:30;;;;;;;2.80;2.45;;;;;;;15.38;100.00;91332.53;5051967;28;20029;-69
2023/06/23 03:58:58;;;;;;;1.70;1.60;;;;;;;15.54;100.00;91332.72;5052066;28;20090;-68
2023/06/23 04:01:26;;;;;;;1.40;1.30;;;;;;;15.64;100.00;91321.63;5052137;28;20025;-68
2023/06/23 04:03:54;;;;;;;1.52;1.42;;;;;;;15.71;100.00;91323.75;5052735;28;20032;-68
2023/06/23 04:06:21;;;;;;;1.73;1.52;;;;;;;15.75;100.00;91333.50;5052129;28;20033;-68
2023/06/23 04:08:51;;;;;;;2.38;1.95;;;;;;;15.95;100.00;91328.44;5052404;28;20025;-68
2023/06/23 04:11:19;;;;;;;2.10;1.90;;;;;;;16.14;100.00;91326.03;5052111;28;20067;-68
2023/06/23 04:13:47;;;;;;;1.08;1.08;;;;;;;16.20;100.00;91326.59;5052164;28;20063;-68
2023/06/23 04:16:13;;;;;;;2.72;2.42;;;;;;;16.28;100.00;91334.56;5052081;28;20087;-68
2023/06/23 04:18:42;;;;;;;1.55;1.48;;;;;;;16.24;100.00;91333.63;5052175;28;20553;-68
2023/06/23 04:21:09;;;;;;;3.40;2.30;;;;;;;16.32;100.00;91340.81;5051994;28;20063;-69
2023/06/23 04:23:36;;;;;;;2.13;1.98;;;;;;;16.38;100.00;91327.97;5052524;28;20056;-68
2023/06/23 04:26:04;;;;;;;1.67;1.58;;;;;;;16.50;100.00;91330.66;5043265;28;20428;-68
2023/06/23 04:28:33;;;;;;;1.92;1.80;;;;;;;16.68;100.00;91334.75;5031958;28;20481;-69
2023/06/23 04:31:02;;;;;;;2.00;1.90;;;;;;;16.86;100.00;91334.50;5032475;28;20075;-68
2023/06/23 04:33:27;;;;;;;1.70;1.60;;;;;;;16.91;100.00;91329.72;5032020;28;20057;-69
2023/06/23 04:36:01;;;;;;;1.95;1.85;;;;;;;17.06;100.00;91329.03;5031917;28;20509;-69
2023/06/23 04:38:32;;;;;;;1.60;1.50;;;;;;;17.24;100.00;91324.19;5031464;28;20076;-69
2023/06/23 04:41:00;;;;;;;2.67;2.05;;;;;;;17.34;100.00;91330.97;5032076;28;20025;-69
2023/06/23 04:43:33;;;;;;;2.97;2.30;;;;;;;17.53;100.00;91336.56;5031947;28;20034;-68
2023/06/23 04:46:06;;;;;;;1.90;1.80;;;;;;;17.53;100.00;91333.88;5051068;28;20033;-69
2023/06/23 04:48:35;;;;;;;;;;;;;;;17.66;100.00;91338.06;5052112;28;20029;-69
2023/06/23 04:51:05;;;;;;;3.63;2.17;;;;;;;17.77;100.00;91341.09;5051897;28;19909;-69
2023/06/23 04:53:34;;;;;;;6.00;2.08;;;;;;;17.96;100.00;91343.16;5051946;28;20036;-68
2023/06/23 04:56:03;;;;;;;1.80;1.70;;;;;;;18.18;100.00;91342.63;5051619;28;20029;-69
2023/06/23 04:58:34;;;;;;;7.63;5.05;;;;;;;18.29;100.00;91348.25;5051548;28;20029;-68
2023/06/23 05:01:01;;;;;;;9.50;5.68;;;;;;;18.40;100.00;91349.34;5051609;28;20108;-68
2023/06/23 05:03:29;;;;;;;5.20;4.13;;;;;;;18.50;100.00;91348.06;5051811;28;20108;-68
2023/06/23 05:05:57;;;;;;;4.25;2.60;;;;;;;18.68;100.00;91356.63;5051895;28;20040;-68
2023/06/23 05:08:26;;;;;;;2.97;2.70;;;;;;;18.99;100.00;91347.75;5050578;28;20563;-69
2023/06/23 05:10:53;;;;;;;3.70;2.35;;;;;;;19.19;100.00;91345.88;5051506;28;20032;-69
2023/06/23 05:13:21;;;;;;;2.50;2.28;;;;;;;19.36;100.00;91346.28;5051440;28;20044;-69
2023/06/23 05:15:48;;;;;;;1.95;1.85;;;;;;;19.48;100.00;91344.59;5051382;28;20028;-69
2023/06/23 05:18:17;;;;;;;2.75;2.55;;;;;;;19.54;100.00;91351.28;5051361;28;20021;-69
2023/06/23 05:20:44;;;;;;;3.50;3.20;;;;;;;19.70;100.00;91350.13;5051400;28;20050;-68
2023/06/23 05:23:12;;;;;;;2.95;2.70;;;;;;;20.01;100.00;91340.34;5051333;28;20146;-69
2023/06/23 05:25:38;;;;;;;2.38;1.88;;;;;;;20.20;100.00;91353.06;5044007;28;20037;-69
2023/06/23 05:28:05;;;;;;;4.45;2.97;;;;;;;20.36;100.00;91352.97;5031190;28;20033;-69
2023/06/23 05:30:32;;;;;;;2.97;2.65;;;;;;;20.30;100.00;91345.16;5031936;28;20077;-69
2023/06/23 05:33:00;;;;;;;2.95;2.15;;;;;;;20.46;100.00;91347.78;5044823;28;20095;-69
2023/06/23 05:35:27;;;;;;;4.63;2.03;;;;;;;20.72;100.00;91347.09;5051474;28;20558;-69
2023/06/23 05:37:53;;;;;;;4.03;2.30;;;;;;;20.84;100.00;91346.94;5050960;28;20099;-69
2023/06/23 05:40:18;;;;;;;3.10;2.05;;;;;;;20.94;100.00;91340.13;5050764;28;20067;-68
2023/06/23 05:42:44;;;;;;;17.52;2.35;;;;;;;21.22;100.00;91345.97;5051400;28;20064;-69
2023/06/23 05:45:11;;;;;;;1.80;1.67;;;;;;;21.63;100.00;91345.44;5051435;28;20029;-69
2023/06/23 05:47:48;;;;;;;5.93;2.42;;;;;;;22.05;100.00;91348.72;5051085;28;20102;-69
2023/06/23 05:50:23;;;;;;;5.18;3.67;;;;;;;22.78;100.00;91349.16;5054324;28;20028;-70
2023/06/23 05:52:57;;;;;;;2.72;1.67;;;;;;;26.07;100.00;91349.28;5055232;28;20100;-69
2023/06/23 05:55:25;;;;;;;3.67;2.55;;;;;;;29.84;98.16;91350.47;5054857;28;20021;-70
2023/06/23 05:57:56;;;;;;;4.70;2.70;;;;;;;31.83;62.06;91355.47;5054503;28;20504;-70
2023/06/23 06:00:25;;;;;;;2.28;1.75;;;;;;;33.97;54.26;91360.56;5054862;28;20029;-70
2023/06/23 06:02:53;;;;;;;2.88;2.67;;;;;;;34.97;48.24;91359.94;5055079;28;20060;-70
2023/06/23 06:05:20;;;;;;;2.92;2.53;;;;;;;35.10;47.56;91357.88;5054894;28;20043;-70
2023/06/23 06:07:47;;;;;;;2.53;2.33;;;;;;;36.17;45.49;91370.38;5054767;28;20040;-69
2023/06/23 06:10:15;;;;;;;2.67;2.22;;;;;;;36.07;44.59;91368.81;5054756;28;20044;-70
2023/06/23 06:12:44;;;;;;;2.60;2.38;;;;;;;35.42;46.80;91354.69;5054437;28;20051;-69
2023/06/23 06:15:12;;;;;;;4.05;1.88;;;;;;;36.35;43.17;91358.59;5054949;28;20108;-71
2023/06/23 06:17:40;;;;;;;3.05;2.70;;;;;;;35.65;44.52;91358.94;5054569;28;20052;-70
2023/06/23 06:20:08;;;;;;;2.35;2.25;;;;;;;34.56;45.98;91353.47;5054620;28;20538;-72
2023/06/23 06:22:37;;;;;;;2.90;2.65;;;;;;;34.31;47.66;91354.28;5053399;28;20028;-73
2023/06/23 06:25:05;;;;;;;6.82;1.90;;;;;;;36.28;43.50;91365.16;5053416;28;20021;-72
2023/06/23 06:27:32;;;;;;;2.50;2.30;;;;;;;36.31;43.99;91353.16;5053418;28;20032;-72
2023/06/23 06:29:58;;;;;;;2.65;2.45;;;;;;;37.76;42.59;91357.13;5053347;28;20032;-72
2023/06/23 06:32:25;;;;;;;2.88;2.60;;;;;;;37.78;40.95;91353.88;5053333;28;20439;-71
2023/06/23 06:34:51;;;;;;;5.80;2.83;;;;;;;37.40;42.13;91351.63;5051883;28;20140;-72
2023/06/23 06:37:19;;;;;;;3.10;2.42;;;;;;;36.31;44.01;91361.47;5050104;28;20037;-73
2023/06/23 06:39:45;;;;;;;3.63;2.65;;;;;;;36.19;45.81;91354.06;5032009;28;20030;-73
2023/06/23 06:42:11;;;;;;;4.65;2.50;;;;;;;36.34;45.63;91352.28;5032940;28;20070;-71
2023/06/23 06:44:37;;;;;;;5.20;2.67;;;;;;;36.41;44.96;91329.78;5032930;28;20073;-72
2023/06/23 06:47:04;;;;;;;4.88;3.30;;;;;;;37.22;44.93;91344.09;5032653;28;20033;-71
2023/06/23 06:49:31;;;;;;;24.40;2.55;;;;;;;36.59;45.80;91340.13;5033195;28;20061;-78
2023/06/23 06:52:04;;;;;;;3.95;2.53;;;;;;;36.89;45.22;91346.75;5015731;28;20025;-84
2023/06/23 06:54:29;;;;;;;;;;;;;;;36.04;47.03;91342.81;5032292;28;20061;-72
2023/06/23 06:56:55;;;;;;;3.08;2.42;;;;;;;36.92;45.77;91340.28;5032535;28;20035;-72
2023/06/23 06:59:21;;;;;;;2.28;2.08;;;;;;;38.41;42.51;91338.13;5032699;28;20106;-73
2023/06/23 07:01:47;;;;;;;4.65;3.20;;;;;;;38.61;41.52;91334.72;5032246;28;20451;-76
2023/06/23 07:04:15;;;;;;;1.70;1.60;;;;;;;37.86;42.81;91332.06;5032849;28;20025;-72
2023/06/23 07:06:40;;;;;;;4.40;2.88;;;;;;;38.41;40.88;91329.00;5031397;28;20388;-77
2023/06/23 07:09:06;;;;;;;2.88;2.58;;;;;;;40.41;38.84;91328.25;5032572;28;20044;-75
2023/06/23 07:11:32;;;;;;;3.28;2.50;;;;;;;39.69;38.52;91325.88;5033469;28;20048;-76
2023/06/23 07:13:58;;;;;;;2.03;1.63;;;;;;;39.34;39.37;91327.81;5031651;28;20025;-75
2023/06/23 07:16:30;;;;;;;10.65;2.55;;;;;;;38.33;40.81;91315.44;5033441;28;20029;-78
2023/06/23 07:18:56;;;;;;;2.83;2.58;;;;;;;37.46;41.36;91316.47;5032139;28;20120;-79
2023/06/23 07:21:21;;;;;;;3.35;2.13;;;;;;;39.36;39.71;91308.59;5032333;28;20033;-77
2023/06/23 07:23:47;;;;;;;2.80;2.60;;;;;;;39.11;38.94;91332.19;5033308;28;20466;-76
2023/06/23 07:26:12;;;;;;;2.40;1.95;;;;;;;40.11;38.71;91327.56;5035849;28;20112;-72
2023/06/23 07:28:43;;;;;;;5.22;2.03;;;;;;;41.59;35.92;91328.31;5041106;28;20028;-79
2023/06/23 07:31:09;;;;;;;2.78;2.58;;;;;;;41.92;35.32;91318.69;5040034;28;20025;-77
2023/06/23 07:33:35;;;;;;;8.20;2.88;;;;;;;41.58;35.53;91337.19;5041127;28;20036;-77
2023/06/23 07:36:00;;;;;;;2.13;1.98;;;;;;;41.58;35.01;91323.22;5041443;28;20033;-82
2023/06/23 07:38:27;;;;;;;3.55;2.50;;;;;;;40.82;35.88;91314.28;5040135;28;20172;-80
2023/06/23 07:40:53;;;;;;;1.73;1.63;;;;;;;40.30;36.20;91323.25;5041834;28;20052;-75
2023/06/23 07:43:20;;;;;;;1.50;1.40;;;;;;;41.72;34.37;91319.56;5055259;28;20475;-77
2023/06/23 07:45:45;;;;;;;1.70;1.60;;;;;;;43.21;33.26;91325.75;5042493;28;20041;-77
2023/06/23 07:48:11;;;;;;;7.90;2.08;;;;;;;42.99;32.47;91326.47;5039629;28;20052;-76
2023/06/23 07:50:36;;;;;;;1.92;1.75;;;;;;;42.65;32.87;91327.56;5041133;28;20025;-75
2023/06/23 07:53:02;;;;;;;4.78;2.50;;;;;;;43.81;31.51;91320.78;5031949;28;20112;-74
2023/06/23 07:55:27;;;;;;;3.53;1.95;;;;;;;44.95;30.32;91320.09;5031575;28;20423;-75
2023/06/23 07:57:52;;;;;;;1.75;1.65;;;;;;;45.23;29.75;91319.97;5031626;28;20029;-75
2023/06/23 08:00:18;;;;;;;19.58;2.45;;;;;;;44.78;30.00;91320.91;5031772;28;20029;-75
2023/06/23 08:02:44;;;;;;;2.55;2.17;;;;;;;44.26;29.25;91320.00;5031011;28;20116;-75
2023/06/23 08:05:09;;;;;;;1.92;1.73;;;;;;;43.70;30.55;91320.00;5046392;28;20487;-74
2023/06/23 08:07:35;;;;;;;1.42;1.33;;;;;;;42.01;32.41;91309.34;5051360;28;20040;-77
2023/06/23 08:10:01;;;;;;;2.10;1.95;;;;;;;41.86;32.92;91312.31;5048182;28;20091;-78
2023/06/23 08:12:26;;;;;;;2.97;2.28;;;;;;;41.54;33.32;91314.31;5050871;28;20031;-77
2023/06/23 08:14:51;;;;;;;3.67;2.33;;;;;;;42.20;31.48;91313.31;5051343;28;20025;-77
2023/06/23 08:17:17;;;;;;;4.03;2.78;;;;;;;41.48;32.80;91311.44;5051251;28;20025;-77
2023/06/23 08:19:43;;;;;;;2.55;2.13;;;;;;;39.66;35.17;91303.78;5051357;28;20017;-77
2023/06/23 08:22:09;;;;;;;1.50;1.40;;;;;;;38.08;36.86;91302.00;5051207;28;20090;-77
2023/06/23 08:24:35;;;;;;;2.92;2.65;;;;;;;39.73;35.01;91303.38;5051360;28;20021;-77
2023/06/23 08:27:00;;;;;;;2.55;1.35;;;;;;;40.03;33.89;91298.53;5051187;28;20514;-77
2023/06/23 08:29:25;;;;;;;2.28;1.45;;;;;;;40.63;33.21;91308.22;5051320;28;20174;-66
2023/06/23 08:31:51;;;;;;;3.90;1.35;;;;;;;42.09;31.68;91302.06;5051549;28;20060;-67
2023/06/23 08:34:18;;;;;;;2.03;1.63;;;;;;;41.78;31.58;91300.78;5051216;28;20478;-66
2023/06/23 08:36:43;;;;;;;1.90;1.80;;;;;;;42.44;33.26;91302.50;5050918;28;20040;-67
2023/06/23 08:39:09;;;;;;;2.42;2.25;;;;;;;41.31;31.93;91304.94;5051202;28;20029;-66
2023/06/23 08:41:39;;;;;;;1.52;1.38;;;;;;;41.34;30.61;91305.97;5051035;28;20027;-66
2023/06/23 08:44:06;;;;;;;2.00;1.90;;;;;;;41.36;32.66;91304.25;5051012;28;20063;-67
2023/06/23 08:46:34;;;;;;;4.68;1.88;;;;;;;41.38;32.51;91306.53;5051026;28;20028;-67
2023/06/23 08:49:04;;;;;;;1.70;1.60;;;;;;;40.59;33.16;91297.28;5051021;28;20064;-67
2023/06/23 08:51:30;;;;;;;2.03;1.83;;;;;;;43.48;30.36;91293.47;5050974;28;20078;-67
2023/06/23 08:53:56;;;;;;;2.45;2.13;;;;;;;44.27;30.61;91299.09;5051010;28;20037;-67
2023/06/23 08:56:22;;;;;;;1.33;1.23;;;;;;;44.41;29.53;91300.84;5050982;28;20029;-67
2023/06/23 08:58:47;;;;;;;3.42;2.15;;;;;;;43.43;30.84;91299.84;5050988;28;20037;-67
2023/06/23 09:01:13;;;;;;;1.60;1.50;;;;;;;44.63;28.20;91297.97;5050878;28;20479;-67
2023/06/23 09:03:38;;;;;;;2.40;2.20;;;;;;;43.88;30.35;91291.47;5050948;28;20029;-67
2023/06/23 09:06:03;;;;;;;2.00;1.85;;;;;;;42.04;31.67;91294.38;5050833;28;20025;-67
2023/06/23 09:08:30;;;;;;;1.60;1.50;;;;;;;43.89;29.79;91290.22;5050901;28;20033;-67
2023/06/23 09:10:56;;;;;;;1.35;1.17;;;;;;;44.06;30.19;91287.38;5049597;28;20025;-67
2023/06/23 09:13:33;;;;;;;3.10;2.15;;;;;;;43.20;31.41;91284.25;5050783;28;20025;-67
2023/06/23 09:16:00;;;;;;;2.05;1.65;;;;;;;42.57;30.15;91287.34;5050753;28;20029;-67
2023/06/23 09:18:26;;;;;;;5.25;2.58;;;;;;;42.01;32.83;91284.97;5050669;28;20086;-67
2023/06/23 09:20:55;;;;;;;4.03;1.92;;;;;;;40.99;33.25;91290.91;5050665;28;20037;-67
2023/06/23 09:23:22;;;;;;;3.70;2.83;;;;;;;40.18;33.88;91271.38;5050618;28;20025;-67
2023/06/23 09:25:49;;;;;;;2.58;2.35;;;;;;;42.49;33.77;91272.28;5054232;28;20087;-67
2023/06/23 09:28:22;;;;;;;2.60;1.95;;;;;;;42.07;32.80;91273.81;5054647;28;20455;-67
2023/06/23 09:30:47;;;;;;;;;;;;;;;42.24;32.72;91271.13;5055172;28;20055;-67
2023/06/23 09:33:13;;;;;;;2.50;2.25;;;;;;;42.78;32.22;91265.53;5053255;28;19995;-67
2023/06/23 09:35:46;;;;;;;4.13;3.67;;;;;;;40.83;34.28;91280.31;5054430;28;20078;-67
2023/06/23 09:38:12;;;;;;;2.25;2.10;;;;;;;40.76;33.22;91283.53;5054278;28;20041;-67
2023/06/23 09:40:38;;;;;;;2.05;1.45;;;;;;;41.00;35.98;91274.91;5053072;28;20114;-66
2023/06/23 09:43:03;;;;;;;2.67;2.22;;;;;;;41.98;32.09;91280.38;5054133;28;20082;-66
2023/06/23 09:45:30;;;;;;;3.03;2.20;;;;;;;42.02;32.98;91277.34;5054240;28;20025;-66
2023/06/23 09:47:55;;;;;;;19.80;2.47;;;;;;;42.77;32.50;91275.97;5054339;28;20025;-66
2023/06/23 09:50:22;;;;;;;2.10;1.90;;;;;;;41.12;33.80;91281.38;5054172;28;20032;-71
2023/06/23 09:52:59;;;;;;;4.32;2.55;;;;;;;41.25;33.50;91271.41;5033960;28;20048;-72
2023/06/23 09:55:25;;;;;;;8.02;2.65;;;;;;;41.66;34.23;91265.66;5032742;28;20515;-70
2023/06/23 09:57:50;;;;;;;2.63;2.42;;;;;;;42.24;34.52;91277.47;5033812;28;20037;-67
2023/06/23 10:00:16;;;;;;;1.83;1.73;;;;;;;42.74;32.22;91271.38;5033879;28;20095;-69
2023/06/23 10:02:42;;;;;;;1.80;1.70;;;;;;;42.79;31.88;91265.03;5033795;28;20030;-69
2023/06/23 10:05:07;;;;;;;2.15;1.65;;;;;;;42.07;31.52;91273.81;5033352;28;20032;-68
2023/06/23 10:07:33;;;;;;;1.88;1.50;;;;;;;40.62;33.37;91268.41;5033772;28;20034;-68
2023/06/23 10:10:04;;;;;;;6.05;1.88;;;;;;;40.30;35.96;91272.31;5033651;28;20033;-68
2023/06/23 10:12:30;;;;;;;2.85;2.20;;;;;;;40.06;35.01;91278.06;5033620;28;20038;-67
2023/06/23 10:14:57;;;;;;;3.35;2.65;;;;;;;40.29;34.31;91265.97;5033635;28;20100;-70
2023/06/23 10:17:23;;;;;;;1.80;1.70;;;;;;;39.76;35.51;91269.00;5033509;28;20040;-70
2023/06/23 10:19:50;;;;;;;2.40;2.20;;;;;;;40.50;36.60;91255.59;5033089;28;20105;-73
2023/06/23 10:22:18;;;;;;;2.60;1.90;;;;;;;40.86;34.40;91265.38;5033407;28;20029;-73
2023/06/23 10:24:53;;;;;;;4.85;2.55;;;;;;;39.96;34.04;91257.13;5033495;28;20052;-72
2023/06/23 10:27:27;;;;;;;2.35;2.15;;;;;;;38.87;35.95;91252.31;5033217;28;20083;-71
2023/06/23 10:29:55;;;;;;;2.75;1.85;;;;;;;38.89;35.47;91249.81;5033259;28;20032;-72
2023/06/23 10:32:23;;;;;;;5.40;2.17;;;;;;;38.34;36.80;91247.50;5033229;28;20716;-72
2023/06/23 10:34:51;;;;;;;2.33;2.08;;;;;;;39.46;35.49;91246.75;5032470;28;20108;-71
2023/06/23 10:37:21;;;;;;;2.20;1.88;;;;;;;40.56;35.72;91247.31;5032893;28;20428;-69
2023/06/23 10:39:52;;;;;;;1.98;1.85;;;;;;;40.64;34.80;91248.38;5033321;28;20029;-70
2023/06/23 10:42:21;;;;;;;1.48;1.38;;;;;;;41.35;35.26;91240.50;5033218;28;20030;-71
2023/06/23 10:44:48;;;;;;;11.52;2.00;;;;;;;41.58;33.68;91247.78;5032910;28;20086;-71
2023/06/23 10:47:14;;;;;;;2.47;2.28;;;;;;;42.11;34.39;91246.41;5032836;28;20388;-71
2023/06/23 10:49:39;;;;;;;2.95;2.28;;;;;;;41.65;31.99;91240.97;5032779;28;20032;-71
2023/06/23 10:52:07;;;;;;;2.67;1.85;;;;;;;42.23;33.33;91242.41;5032951;28;20034;-70
2023/06/23 10:54:32;;;;;;;2.28;2.08;;;;;;;42.56;31.81;91236.19;5033089;28;20121;-70
2023/06/23 10:56:58;;;;;;;2.47;2.28;;;;;;;42.82;32.61;91229.69;5032679;28;20116;-70
2023/06/23 10:59:30;;;;;;;2.05;1.85;;;;;;;42.05;34.62;91234.41;5033042;28;20037;-71
2023/06/23 11:02:01;;;;;;;;;;;;;;;40.21;35.06;91225.03;5033055;28;20048;-70
2023/06/23 11:04:28;;;;;;;1.98;1.80;;;;;;;39.93;36.14;91227.47;5032277;28;20003;-70
2023/06/23 11:07:12;;;;;;;3.22;2.65;;;;;;;41.67;35.15;91228.09;5032517;28;20033;-71
2023/06/23 11:09:58;;;;;;;2.20;1.85;;;;;;;41.04;32.85;91218.91;5032438;28;20431;-71
2023/06/23 11:12:39;;;;;;;1.58;1.48;;;;;;;38.73;36.34;91216.91;5032547;28;20025;-70
2023/06/23 11:15:16;;;;;;;3.10;2.45;;;;;;;39.22;34.90;91215.50;5032497;28;20052;-70
2023/06/23 11:17:45;;;;;;;6.25;2.83;;;;;;;39.99;36.73;91214.38;5031955;28;20044;-71
2023/06/23 11:20:20;;;;;;;11.13;2.45;;;;;;;39.40;36.41;91218.06;5032253;28;20096;-71
2023/06/23 11:22:59;;;;;;;4.20;2.22;;;;;;;39.41;36.60;91210.47;5032256;28;20030;-70
2023/06/23 11:25:29;;;;;;;6.95;1.90;;;;;;;40.35;35.61;91211.03;5032211;28;20029;-71
2023/06/23 11:28:25;;;;;;;2.67;1.50;;;;;;;39.40;35.93;91204.13;5032180;28;20491;-71
2023/06/23 11:31:07;;;;;;;2.50;2.00;;;;;;;38.56;37.91;91199.13;5032192;28;20084;-71
2023/06/23 11:33:35;;;;;;;5.68;2.47;;;;;;;38.59;39.98;91192.63;5032027;28;20117;-71
2023/06/23 11:36:03;;;;;;;3.55;2.55;;;;;;;38.32;38.98;91196.41;5031798;28;20043;-71